Terminal Aerodrome Forecast
Issued by NWS

Home | Current Version | Previous Version | Text Only | Print | Product List | Glossary On
Versions: 1 2 3 4 5 6 7 8 9 10 11 12 13 14 15 16 17 18
000
FTUS43 KIND 230500
TAFLAF
TAF
KLAF 230520Z 2306/2406 05004KT P6SM BKN200
     FM230800 10005KT P6SM BKN150
     FM231500 15007KT P6SM SCT050 BKN120
     FM231800 19008KT P6SM SCT060 BKN100
     FM240100 13003KT P6SM BKN100
      AMD LTD TO CLD VIS AND WIND TIL 231300=

USA.gov is the U.S. government's official web portal to all federal, state and local government web resources and services.